Saint Elizabeth, Missouri
Current Conditions -  °F | °C
As of 5:35 PM on Saturday 22 Nov 2014 (Local Time) from KAIZ Reporting Station
Overcast Overcast  
Wind Chill: 54°   Ceiling: 1000
Heat Index: 54°   Visibility: 10mi
Dew Point: 48°   Wind: 14mph
Humidity: 82%   Direction: 180°S
Pressure: 29.88"   Gusts: 21mph
Location:  38.26°N, 92.27°W
Report Text: KAIZ 222335Z AUTO 18012G18KT 10SM OVC010 12/09 A2988 RMK AO1
Loading
Personal Weather Stations






























Interactive Weather Map New forecast layout! Learn more

10-Day Weather Forecast

Advertisements
Track Severe Weather on mobile